Time;durP1;ratioP1;P1;durP2;ratioP2;P2;SDS_P1;SDS_P2;PMS_P1;PMS_P2;Temp;Humidity;BMP_temperature;BMP_pressure;BME280_temperature;BME280_humidity;BME280_pressure;Samples;Min_cycle;Max_cycle;Signal;HPM_P1;HPM_P2
2021/12/06 00:00:09;;;;;;;3.57;3.27;;;;;;;2.73;96.53;95801.25;5035010;28;20287;-68
2021/12/06 00:02:37;;;;;;;3.80;3.50;;;;;;;2.72;96.37;95812.66;5034862;28;20294;-72
2021/12/06 00:05:05;;;;;;;4.07;3.77;;;;;;;2.74;96.30;95820.34;5040405;28;20632;-68
2021/12/06 00:07:31;;;;;;;4.03;3.60;;;;;;;2.72;97.39;95828.31;5032562;28;20234;-71
2021/12/06 00:09:58;;;;;;;4.47;3.30;;;;;;;2.74;96.99;95836.84;5035254;28;20229;-71
2021/12/06 00:12:24;;;;;;;4.23;3.83;;;;;;;2.75;96.82;95833.31;5034785;28;20678;-71
2021/12/06 00:14:51;;;;;;;3.40;3.20;;;;;;;2.76;96.09;95834.16;5034931;28;20246;-68
2021/12/06 00:17:19;;;;;;;5.00;4.07;;;;;;;2.79;96.14;95834.75;5035072;28;20219;-70
2021/12/06 00:19:47;;;;;;;3.63;3.33;;;;;;;2.79;96.17;95834.75;5022958;28;20694;-68
2021/12/06 00:22:15;;;;;;;4.23;3.80;;;;;;;2.80;96.87;95831.16;5028317;28;20662;-67
2021/12/06 00:24:42;;;;;;;5.13;4.73;;;;;;;2.82;95.39;95839.72;5015252;28;20283;-69
2021/12/06 00:27:09;;;;;;;8.90;8.00;;;;;;;2.90;96.61;95842.59;5015275;28;20215;-68
2021/12/06 00:29:36;;;;;;;9.00;8.20;;;;;;;2.88;95.94;95844.47;5015022;28;20650;-70
2021/12/06 00:32:02;;;;;;;10.17;9.13;;;;;;;2.87;96.20;95844.63;5015500;28;20254;-73
2021/12/06 00:34:33;;;;;;;11.63;10.43;;;;;;;2.81;95.70;95848.50;5016857;28;20244;-69
2021/12/06 00:37:17;;;;;;;11.87;10.77;;;;;;;2.88;97.83;95851.47;5035121;28;20199;-68
2021/12/06 00:39:44;;;;;;;10.43;9.33;;;;;;;2.92;97.21;95851.13;5020810;28;20294;-71
2021/12/06 00:42:11;;;;;;;11.83;10.63;;;;;;;2.89;96.88;95838.31;5015407;28;20240;-69
2021/12/06 00:44:40;;;;;;;11.33;10.23;;;;;;;2.95;96.04;95840.47;5028220;28;20262;-71
2021/12/06 00:47:06;;;;;;;10.97;9.97;;;;;;;2.84;96.44;95848.28;5015569;28;20212;-68
2021/12/06 00:49:33;;;;;;;11.50;10.40;;;;;;;2.84;96.99;95853.50;5034954;28;20214;-69
2021/12/06 00:52:01;;;;;;;11.50;10.30;;;;;;;2.78;95.64;95853.97;5034822;28;20226;-70
2021/12/06 00:54:29;;;;;;;11.17;9.97;;;;;;;2.82;97.14;95860.63;5034472;28;20244;-68
2021/12/06 00:56:56;;;;;;;10.60;9.60;;;;;;;2.86;96.43;95856.00;5033144;28;20207;-71
2021/12/06 00:59:22;;;;;;;10.57;9.57;;;;;;;2.83;95.71;95857.06;5034903;28;20290;-72
2021/12/06 01:01:51;;;;;;;11.17;10.17;;;;;;;2.83;96.71;95864.91;5038736;28;20207;-72
2021/12/06 01:04:17;;;;;;;12.27;11.10;;;;;;;2.83;96.83;95866.69;5043127;28;20235;-72
2021/12/06 01:06:43;;;;;;;12.43;11.13;;;;;;;2.86;97.15;95869.06;5047157;28;20206;-71
2021/12/06 01:09:11;;;;;;;11.43;10.33;;;;;;;2.81;97.26;95869.38;5038685;28;20211;-69
2021/12/06 01:11:38;;;;;;;11.07;10.07;;;;;;;2.85;96.53;95873.44;5038791;28;20215;-73
2021/12/06 01:14:04;;;;;;;11.80;10.60;;;;;;;2.89;97.29;95877.50;5038238;28;20234;-67
2021/12/06 01:16:31;;;;;;;12.17;10.90;;;;;;;2.86;96.57;95882.94;5037652;28;20222;-69
2021/12/06 01:18:58;;;;;;;12.63;11.43;;;;;;;2.88;97.49;95886.25;5038284;28;20210;-72
2021/12/06 01:21:30;;;;;;;8.37;7.47;;;;;;;2.90;96.13;95889.59;5038457;28;20211;-71
2021/12/06 01:23:59;;;;;;;6.20;5.13;;;;;;;2.88;96.60;95886.25;5038326;28;20686;-71
2021/12/06 01:26:43;;;;;;;5.07;4.57;;;;;;;2.90;96.77;95894.81;5038456;28;20563;-71
2021/12/06 01:29:37;;;;;;;5.03;4.63;;;;;;;2.90;95.87;95884.38;5029602;28;20353;-69
2021/12/06 01:32:13;;;;;;;4.80;4.40;;;;;;;2.85;95.81;95891.72;5015228;28;20615;-71
2021/12/06 01:40:09;;;;;;;7.43;6.73;;;;;;;2.82;95.66;95897.16;5040066;28;20215;-71
2021/12/06 01:42:37;;;;;;;6.63;6.03;;;;;;;2.74;94.35;95894.28;5037093;28;20627;-67
2021/12/06 01:45:06;;;;;;;8.97;6.73;;;;;;;2.75;95.53;95901.19;5032176;28;20539;-67
2021/12/06 01:47:34;;;;;;;6.50;5.90;;;;;;;2.77;96.36;95914.94;5039611;28;20520;-73
2021/12/06 01:50:06;;;;;;;7.10;6.40;;;;;;;2.68;96.92;95907.81;5039273;28;20219;-69
2021/12/06 01:52:35;;;;;;;6.93;6.43;;;;;;;2.65;95.29;95910.63;5039658;28;20252;-69
2021/12/06 01:55:02;;;;;;;8.37;7.33;;;;;;;2.69;96.26;95912.09;5037898;28;20230;-72
2021/12/06 01:57:30;;;;;;;9.43;8.53;;;;;;;2.74;95.42;95914.34;5038504;28;20215;-72
2021/12/06 01:59:59;;;;;;;9.90;8.90;;;;;;;2.67;95.86;95918.34;5034099;28;20543;-70
2021/12/06 02:02:28;;;;;;;10.63;9.63;;;;;;;2.57;95.47;95918.19;5024030;28;20213;-67
2021/12/06 02:04:54;;;;;;;11.57;9.63;;;;;;;2.56;95.92;95926.13;5033231;28;20206;-73
2021/12/06 02:07:24;;;;;;;9.57;8.63;;;;;;;2.57;96.14;95933.84;5050454;28;20198;-67
2021/12/06 02:09:51;;;;;;;10.83;9.73;;;;;;;2.50;96.99;95924.81;5038684;28;20498;-70
2021/12/06 02:12:18;;;;;;;11.27;10.17;;;;;;;2.46;95.80;95924.19;5037063;28;20215;-72
2021/12/06 02:14:55;;;;;;;10.73;9.63;;;;;;;2.46;95.69;95931.19;5037586;28;20226;-71
2021/12/06 02:17:27;;;;;;;10.70;9.60;;;;;;;2.48;96.65;95930.13;5037881;28;20682;-67
2021/12/06 02:19:59;;;;;;;11.33;10.13;;;;;;;2.42;96.68;95927.13;5037755;28;20206;-71
2021/12/06 02:22:28;;;;;;;12.83;11.53;;;;;;;2.45;95.90;95929.50;5038276;28;20211;-72
2021/12/06 02:24:56;;;;;;;14.03;12.57;;;;;;;2.40;95.67;95942.91;5038284;28;20221;-71
2021/12/06 02:27:27;;;;;;;13.00;11.47;;;;;;;2.34;96.88;95943.31;5038360;28;20225;-68
2021/12/06 02:29:56;;;;;;;14.43;11.97;;;;;;;2.38;95.62;95944.78;5037171;28;20210;-72
2021/12/06 02:32:22;;;;;;;14.43;12.33;;;;;;;2.47;95.75;95948.50;5036859;28;20221;-72
2021/12/06 02:34:51;;;;;;;16.50;13.60;;;;;;;2.36;94.80;95945.84;5037684;28;20238;-68
2021/12/06 02:37:20;;;;;;;14.77;13.20;;;;;;;2.30;96.49;95951.50;5037545;28;20544;-70
2021/12/06 02:39:48;;;;;;;14.97;13.10;;;;;;;2.29;96.74;95949.84;5037122;28;20214;-72
2021/12/06 02:42:16;;;;;;;13.93;12.43;;;;;;;2.30;98.08;95954.13;5036467;28;20235;-68
2021/12/06 02:44:43;;;;;;;14.63;12.90;;;;;;;2.33;97.39;95954.72;5037087;28;20218;-70
2021/12/06 02:47:09;;;;;;;17.60;13.90;;;;;;;2.38;96.95;95965.66;5038870;28;20234;-72
2021/12/06 02:49:36;;;;;;;15.60;13.73;;;;;;;2.41;97.20;95961.97;5037619;28;20215;-68
2021/12/06 02:52:04;;;;;;;15.93;13.97;;;;;;;2.43;96.23;95973.16;5037370;28;20598;-69
2021/12/06 02:54:30;;;;;;;16.67;14.10;;;;;;;2.47;95.32;95969.38;5032777;28;20259;-71
2021/12/06 02:57:18;;;;;;;15.27;13.03;;;;;;;2.50;93.82;95974.38;5034302;28;20229;-71
2021/12/06 02:59:47;;;;;;;14.77;12.93;;;;;;;2.32;95.35;95973.09;5037634;28;20210;-70
2021/12/06 03:02:17;;;;;;;17.97;14.10;;;;;;;2.21;95.19;95978.22;5038370;28;20514;-71
2021/12/06 03:04:44;;;;;;;14.87;12.60;;;;;;;2.25;96.39;95982.28;5035610;28;20222;-72
2021/12/06 03:07:11;;;;;;;17.00;13.77;;;;;;;2.23;97.34;95981.59;5037306;28;20214;-71
2021/12/06 03:09:40;;;;;;;17.17;14.33;;;;;;;2.23;97.72;95981.59;5036620;28;20210;-70
2021/12/06 03:12:11;;;;;;;18.07;14.70;;;;;;;2.23;95.74;95982.38;5039397;28;20197;-69
2021/12/06 03:14:40;;;;;;;18.27;14.97;;;;;;;2.25;96.79;95992.72;5026361;28;20243;-68
2021/12/06 03:17:11;;;;;;;17.87;14.73;;;;;;;2.20;96.52;96000.88;5020119;28;20632;-70
2021/12/06 03:19:37;;;;;;;21.60;16.47;;;;;;;2.21;95.84;95999.94;5017127;28;20261;-72
2021/12/06 03:22:06;;;;;;;20.30;16.90;;;;;;;2.17;95.88;96008.06;5016867;28;20211;-72
2021/12/06 03:24:33;;;;;;;20.37;16.50;;;;;;;2.16;97.01;96011.66;5025685;28;20210;-68
2021/12/06 03:26:59;;;;;;;21.10;15.47;;;;;;;2.21;98.06;96014.75;5019039;28;20647;-72
2021/12/06 03:29:29;;;;;;;17.33;14.43;;;;;;;2.25;96.86;96018.81;5017203;28;20223;-70
2021/12/06 03:31:55;;;;;;;17.87;14.27;;;;;;;2.23;96.61;96018.09;5017305;28;20212;-71
2021/12/06 03:34:26;;;;;;;16.00;13.20;;;;;;;2.16;95.59;96028.09;5020400;28;20627;-72
2021/12/06 03:36:53;;;;;;;14.57;11.47;;;;;;;2.17;95.33;96026.34;5036635;28;20662;-70
2021/12/06 03:39:23;;;;;;;13.60;12.17;;;;;;;2.18;95.06;96030.63;5036626;28;20270;-67
2021/12/06 03:41:50;;;;;;;14.43;11.27;;;;;;;2.13;95.30;96032.69;5036001;28;20643;-69
2021/12/06 03:44:18;;;;;;;13.80;12.03;;;;;;;2.01;95.56;96031.78;5036393;28;20223;-69
2021/12/06 03:46:46;;;;;;;17.57;13.30;;;;;;;2.06;96.13;96042.72;5036574;28;20241;-68
2021/12/06 03:49:15;;;;;;;17.40;13.90;;;;;;;2.08;95.81;96050.44;5037046;28;20532;-69
2021/12/06 03:51:43;;;;;;;18.53;15.00;;;;;;;2.11;96.65;96053.69;5036099;28;20203;-67
2021/12/06 03:54:10;;;;;;;19.77;15.80;;;;;;;2.08;96.53;96042.63;5036037;28;20210;-69
2021/12/06 03:56:39;;;;;;;18.57;15.53;;;;;;;2.10;97.29;96052.00;5028698;28;20235;-71
2021/12/06 03:59:05;;;;;;;21.37;15.60;;;;;;;2.13;96.70;96048.34;5036002;28;20245;-68
2021/12/06 04:01:32;;;;;;;19.43;16.00;;;;;;;2.09;96.59;96046.91;5035941;28;20219;-67
2021/12/06 04:04:00;;;;;;;17.43;14.00;;;;;;;2.14;98.38;96056.06;5035820;28;20215;-68
2021/12/06 04:06:27;;;;;;;16.73;13.63;;;;;;;2.15;98.51;96051.69;5046025;28;20213;-71
2021/12/06 04:08:53;;;;;;;17.97;14.47;;;;;;;2.19;96.72;96058.38;5035540;28;20218;-69
2021/12/06 04:11:20;;;;;;;16.40;13.67;;;;;;;2.23;96.52;96059.84;5025591;28;20214;-69
2021/12/06 04:13:47;;;;;;;14.57;12.80;;;;;;;2.17;96.38;96060.25;5015744;28;20523;-69
2021/12/06 04:16:13;;;;;;;13.63;12.20;;;;;;;2.19;96.40;96063.59;5036389;28;20241;-73
2021/12/06 04:18:40;;;;;;;14.83;12.60;;;;;;;2.20;96.14;96054.81;5020056;28;20219;-71
2021/12/06 04:21:09;;;;;;;15.67;12.53;;;;;;;2.18;95.80;96070.56;5018049;28;20231;-72
2021/12/06 04:23:36;;;;;;;15.57;13.07;;;;;;;2.27;97.57;96071.69;5016311;28;20585;-69
2021/12/06 04:26:03;;;;;;;15.33;13.33;;;;;;;2.25;97.03;96068.38;5017396;28;20231;-72
2021/12/06 04:28:33;;;;;;;14.90;12.77;;;;;;;2.35;95.65;96075.44;5020214;28;20222;-72
2021/12/06 04:30:59;;;;;;;16.70;13.57;;;;;;;2.43;94.92;96078.38;5017251;28;20310;-71
2021/12/06 04:33:26;;;;;;;17.30;13.10;;;;;;;2.38;94.91;96077.84;5016326;28;20524;-72
2021/12/06 04:35:52;;;;;;;15.83;13.17;;;;;;;2.37;95.74;96080.56;5032355;28;20245;-71
2021/12/06 04:38:21;;;;;;;17.17;13.63;;;;;;;2.32;96.07;96090.47;5021128;28;20234;-71
2021/12/06 04:40:48;;;;;;;16.83;12.97;;;;;;;2.36;95.44;96089.34;5021457;28;20573;-71
2021/12/06 04:43:14;;;;;;;15.87;13.67;;;;;;;2.32;96.25;96095.69;5025101;28;20252;-68
2021/12/06 04:45:41;;;;;;;15.53;13.43;;;;;;;2.36;96.16;96091.94;5040422;28;20227;-69
2021/12/06 04:48:08;;;;;;;15.30;13.67;;;;;;;2.37;95.88;96099.66;5039839;28;20214;-70
2021/12/06 04:50:37;;;;;;;16.70;14.17;;;;;;;2.35;95.60;96103.31;5039651;28;20229;-67
2021/12/06 04:53:06;;;;;;;17.37;14.37;;;;;;;2.36;96.52;96108.44;5040000;28;20206;-67
2021/12/06 04:55:38;;;;;;;17.63;14.30;;;;;;;2.33;95.28;96113.88;5037951;28;20670;-67
2021/12/06 04:58:06;;;;;;;18.20;15.10;;;;;;;2.32;95.41;96116.56;5027095;28;20622;-68
2021/12/06 05:00:37;;;;;;;19.47;14.57;;;;;;;2.33;95.86;96113.03;5041058;28;20211;-72
2021/12/06 05:03:10;;;;;;;17.47;14.87;;;;;;;2.35;95.88;96125.03;5045423;28;20206;-72
2021/12/06 05:05:38;;;;;;;17.90;13.73;;;;;;;2.41;95.30;96134.19;5052345;28;20202;-70
2021/12/06 05:08:08;;;;;;;18.73;15.03;;;;;;;2.41;94.47;96132.41;5039144;28;20210;-69
2021/12/06 05:10:37;;;;;;;18.43;14.63;;;;;;;2.36;94.17;96133.69;5039151;28;20228;-67
2021/12/06 05:13:04;;;;;;;17.27;14.53;;;;;;;2.27;93.67;96136.91;5038102;28;20626;-68
2021/12/06 05:15:30;;;;;;;17.60;14.10;;;;;;;2.26;94.61;96143.09;5038597;28;20238;-67
2021/12/06 05:17:57;;;;;;;18.33;14.87;;;;;;;2.20;94.00;96143.47;5026619;28;20231;-69
2021/12/06 05:20:23;;;;;;;18.33;13.67;;;;;;;2.26;94.28;96154.38;5018997;28;20278;-68
2021/12/06 05:22:50;;;;;;;14.67;13.07;;;;;;;2.24;93.69;96153.63;5019517;28;20632;-72
2021/12/06 05:25:18;;;;;;;15.90;13.10;;;;;;;2.25;93.56;96152.69;5033163;28;20207;-71
2021/12/06 05:27:46;;;;;;;16.87;14.13;;;;;;;2.18;94.59;96153.19;5030429;28;20281;-71
2021/12/06 05:30:14;;;;;;;16.20;13.97;;;;;;;2.26;93.34;96161.34;5038587;28;20211;-72
2021/12/06 05:32:42;;;;;;;17.70;14.27;;;;;;;2.19;93.23;96152.28;5038592;28;20216;-69
2021/12/06 05:35:10;;;;;;;17.47;14.67;;;;;;;2.12;93.29;96158.84;5032691;28;20294;-71
2021/12/06 05:37:39;;;;;;;16.73;14.93;;;;;;;2.10;94.24;96161.53;5018445;28;20340;-67
2021/12/06 05:40:08;;;;;;;19.83;14.43;;;;;;;2.07;94.27;96168.72;5025256;28;20228;-71
2021/12/06 05:42:35;;;;;;;18.07;15.67;;;;;;;2.04;94.64;96168.94;5019046;28;20528;-67
2021/12/06 05:45:04;;;;;;;18.03;15.03;;;;;;;2.01;95.20;96180.41;5038964;28;20203;-71
2021/12/06 05:47:30;;;;;;;18.17;14.97;;;;;;;2.00;94.40;96179.59;5038895;28;20214;-68
2021/12/06 05:49:57;;;;;;;17.63;15.20;;;;;;;1.97;95.99;96173.75;5038678;28;20214;-70
2021/12/06 05:52:23;;;;;;;18.13;14.47;;;;;;;1.94;95.96;96181.78;5038708;28;20218;-70
2021/12/06 05:54:51;;;;;;;17.03;14.60;;;;;;;1.98;95.82;96191.88;5037157;28;20570;-71
2021/12/06 05:57:18;;;;;;;17.57;13.87;;;;;;;2.02;94.73;96186.47;5023292;28;20249;-67
2021/12/06 05:59:45;;;;;;;14.80;12.90;;;;;;;2.04;93.79;96195.84;5018876;28;20224;-71
2021/12/06 06:02:14;;;;;;;16.07;14.03;;;;;;;1.99;95.13;96192.72;5021485;28;20211;-72
2021/12/06 06:04:41;;;;;;;14.07;11.93;;;;;;;2.06;94.01;96195.75;5033153;28;20241;-67
2021/12/06 06:07:08;;;;;;;14.27;11.87;;;;;;;2.16;91.95;96199.44;5043275;28;20195;-71
2021/12/06 06:09:35;;;;;;;15.73;12.30;;;;;;;2.14;91.84;96194.31;5030585;28;20210;-69
2021/12/06 06:12:03;;;;;;;13.00;10.97;;;;;;;2.10;91.42;96207.66;5031995;28;20206;-71
2021/12/06 06:14:30;;;;;;;12.23;10.80;;;;;;;2.00;91.09;96210.88;5038984;28;20242;-67
2021/12/06 06:17:03;;;;;;;11.30;9.67;;;;;;;1.96;92.51;96209.41;5034412;28;20233;-68
2021/12/06 06:19:31;;;;;;;11.57;9.70;;;;;;;1.95;93.20;96217.31;5028492;28;20218;-68
2021/12/06 06:21:58;;;;;;;11.93;9.90;;;;;;;1.94;93.24;96219.13;5030368;28;20197;-67
2021/12/06 06:24:24;;;;;;;11.10;9.90;;;;;;;1.97;94.00;96218.06;5031258;28;20198;-71
2021/12/06 06:26:51;;;;;;;11.57;10.37;;;;;;;1.96;92.87;96222.44;5029376;28;20202;-69
2021/12/06 06:29:18;;;;;;;10.80;9.57;;;;;;;1.86;93.22;96225.75;5030087;28;20223;-69
2021/12/06 06:31:44;;;;;;;11.67;9.87;;;;;;;1.91;94.32;96232.31;5031147;28;20214;-71
2021/12/06 06:34:11;;;;;;;11.60;10.33;;;;;;;1.89;94.12;96239.41;5030687;28;20235;-68
2021/12/06 06:36:39;;;;;;;11.97;10.67;;;;;;;1.91;94.29;96247.97;5030550;28;20230;-71
2021/12/06 06:39:07;;;;;;;12.47;10.47;;;;;;;1.89;94.58;96249.84;5031171;28;20203;-71
2021/12/06 06:41:35;;;;;;;11.57;10.37;;;;;;;1.95;94.12;96249.44;5028074;28;20702;-70
2021/12/06 06:44:02;;;;;;;12.63;10.73;;;;;;;1.91;94.29;96252.38;5029658;28;20202;-71
2021/12/06 06:46:29;;;;;;;13.73;10.73;;;;;;;1.91;94.17;96250.56;5027290;28;20198;-72
2021/12/06 06:48:56;;;;;;;12.93;10.97;;;;;;;1.91;94.92;96260.19;5027742;28;20640;-69
2021/12/06 06:51:23;;;;;;;11.33;9.50;;;;;;;1.95;95.02;96251.22;5027969;28;20304;-72
2021/12/06 06:53:51;;;;;;;11.33;9.57;;;;;;;1.96;94.57;96260.72;5028215;28;20608;-72
2021/12/06 06:56:18;;;;;;;9.77;8.77;;;;;;;1.99;94.68;96266.56;5027092;28;20229;-67
2021/12/06 06:58:44;;;;;;;9.70;8.77;;;;;;;1.95;94.19;96270.31;5027086;28;20698;-71
2021/12/06 07:01:11;;;;;;;10.73;8.67;;;;;;;1.94;94.65;96283.44;5030597;28;20215;-71
2021/12/06 07:03:37;;;;;;;8.80;7.90;;;;;;;1.95;94.01;96275.50;5037303;28;20215;-68
2021/12/06 07:06:04;;;;;;;11.10;9.50;;;;;;;2.03;92.73;96279.41;5049047;28;20202;-71
2021/12/06 07:08:33;;;;;;;9.37;8.37;;;;;;;1.95;94.98;96283.34;5037806;28;20214;-72
2021/12/06 07:11:01;;;;;;;8.87;7.97;;;;;;;1.95;94.42;96285.09;5030633;28;20215;-71
2021/12/06 07:13:28;;;;;;;9.20;8.27;;;;;;;2.00;94.87;96283.88;5029644;28;20210;-71
2021/12/06 07:15:55;;;;;;;10.43;8.27;;;;;;;2.03;93.58;96287.22;5023788;28;20211;-67
2021/12/06 07:18:22;;;;;;;9.60;8.10;;;;;;;2.00;94.54;96302.13;5036944;28;20230;-67
2021/12/06 07:20:48;;;;;;;9.50;8.23;;;;;;;2.00;95.24;96301.31;5035792;28;20230;-69
2021/12/06 07:23:15;;;;;;;11.77;8.90;;;;;;;2.04;94.83;96297.56;5034975;28;20220;-71
2021/12/06 07:25:41;;;;;;;12.13;9.33;;;;;;;2.10;94.70;96299.75;5017662;28;20619;-69
2021/12/06 07:28:09;;;;;;;13.47;9.00;;;;;;;2.12;94.71;96307.50;5031399;28;20213;-68
2021/12/06 07:30:36;;;;;;;10.87;9.70;;;;;;;2.14;94.70;96292.56;5036359;28;20211;-68
2021/12/06 07:33:03;;;;;;;9.73;8.80;;;;;;;2.18;95.08;96314.91;5034278;28;20254;-68
2021/12/06 07:35:29;;;;;;;16.17;10.33;;;;;;;2.24;94.19;96322.34;5016711;28;20212;-67
2021/12/06 07:37:56;;;;;;;11.80;9.90;;;;;;;2.24;94.21;96322.34;5018099;28;20574;-71
2021/12/06 07:40:23;;;;;;;12.13;8.90;;;;;;;2.25;93.57;96324.00;5023573;28;20312;-69
2021/12/06 07:42:50;;;;;;;11.37;8.83;;;;;;;2.31;93.67;96334.88;5035690;28;20562;-70
2021/12/06 07:45:18;;;;;;;9.07;8.17;;;;;;;2.35;93.68;96340.72;5036742;28;20279;-70
2021/12/06 07:47:45;;;;;;;9.00;8.10;;;;;;;2.32;91.63;96346.16;5034483;28;20217;-69
2021/12/06 07:50:13;;;;;;;9.27;8.27;;;;;;;2.41;94.15;96350.75;5019365;28;20215;-71
2021/12/06 07:52:41;;;;;;;10.73;8.47;;;;;;;2.41;92.89;96359.44;5023733;28;20208;-72
2021/12/06 07:55:10;;;;;;;9.67;8.53;;;;;;;2.39;92.58;96365.69;5020498;28;20226;-68
2021/12/06 07:57:36;;;;;;;9.90;8.90;;;;;;;2.50;93.84;96366.66;5024188;28;20234;-71
2021/12/06 08:00:06;;;;;;;11.00;9.40;;;;;;;2.56;92.99;96372.41;5030384;28;20214;-72
2021/12/06 08:02:34;;;;;;;10.37;9.27;;;;;;;2.58;93.04;96379.22;5033222;28;20207;-68
2021/12/06 08:05:29;;;;;;;12.47;9.70;;;;;;;2.56;91.63;96375.84;5043338;28;20220;-71
2021/12/06 08:07:47;;;;;;;12.70;9.87;;;;;;;2.66;92.88;96381.31;5022331;28;20630;-71
2021/12/06 08:10:14;;;;;;;11.10;9.03;;;;;;;2.70;93.92;96377.56;5034526;28;20524;-72
2021/12/06 08:12:41;;;;;;;11.47;9.30;;;;;;;2.64;92.24;96381.41;5035221;28;20215;-69
2021/12/06 08:15:08;;;;;;;9.60;8.60;;;;;;;2.71;92.22;96371.41;5021343;28;20207;-71
2021/12/06 08:17:36;;;;;;;10.20;9.10;;;;;;;2.74;92.03;96379.88;5026943;28;20713;-67
2021/12/06 08:20:03;;;;;;;10.50;9.23;;;;;;;2.73;89.77;96383.41;5015490;28;20217;-67
2021/12/06 08:22:31;;;;;;;9.57;8.57;;;;;;;2.67;92.30;96378.59;5026201;28;20214;-68
2021/12/06 08:24:58;;;;;;;10.57;9.17;;;;;;;2.75;91.88;96391.16;5035281;28;20242;-69
2021/12/06 08:27:24;;;;;;;9.33;8.43;;;;;;;2.81;92.91;96394.19;5034856;28;20213;-67
2021/12/06 08:29:51;;;;;;;10.00;9.00;;;;;;;2.78;91.98;96393.56;5022768;28;20607;-70
2021/12/06 08:32:18;;;;;;;11.57;8.80;;;;;;;2.84;93.24;96399.19;5026524;28;20212;-70
2021/12/06 08:34:46;;;;;;;10.33;9.23;;;;;;;2.95;92.03;96403.72;5027046;28;20309;-67
2021/12/06 08:37:12;;;;;;;9.37;8.37;;;;;;;2.92;90.90;96409.97;5024715;28;20238;-69
2021/12/06 08:39:39;;;;;;;10.43;9.43;;;;;;;2.95;90.41;96404.53;5035995;28;20221;-70
2021/12/06 08:42:07;;;;;;;11.33;9.47;;;;;;;3.00;91.74;96409.47;5034674;28;20242;-67
2021/12/06 08:44:33;;;;;;;11.07;8.80;;;;;;;3.08;90.91;96415.03;5033157;28;20218;-67
2021/12/06 08:47:00;;;;;;;8.33;7.43;;;;;;;3.15;90.56;96420.69;5034734;28;20198;-71
2021/12/06 08:49:27;;;;;;;8.90;7.43;;;;;;;3.27;89.64;96425.88;5034754;28;20218;-68
2021/12/06 08:51:57;;;;;;;8.27;7.40;;;;;;;3.24;88.32;96422.66;5035168;28;20611;-69
2021/12/06 08:54:27;;;;;;;9.43;8.53;;;;;;;3.30;87.99;96424.84;5035268;28;20481;-66
2021/12/06 08:56:54;;;;;;;8.23;7.43;;;;;;;3.33;87.38;96429.88;5028307;28;20563;-67
2021/12/06 08:59:22;;;;;;;7.40;6.70;;;;;;;3.38;87.16;96425.16;5035075;28;20265;-69
2021/12/06 09:01:48;;;;;;;7.57;6.80;;;;;;;3.36;87.35;96434.91;5034672;28;20210;-71
2021/12/06 09:04:16;;;;;;;7.33;6.23;;;;;;;3.41;87.36;96440.63;5022850;28;20207;-71
2021/12/06 09:06:44;;;;;;;6.13;5.53;;;;;;;3.52;86.31;96432.91;5037402;28;20540;-69
2021/12/06 09:09:13;;;;;;;5.83;5.30;;;;;;;3.55;84.85;96442.28;5016992;28;20220;-71
2021/12/06 09:11:41;;;;;;;6.87;4.97;;;;;;;3.46;83.81;96449.00;5017090;28;20295;-67
2021/12/06 09:14:09;;;;;;;5.83;5.23;;;;;;;3.53;85.21;96445.03;5015710;28;20579;-72
2021/12/06 09:16:37;;;;;;;5.53;4.63;;;;;;;3.53;83.66;96442.41;5023991;28;20207;-69
2021/12/06 09:19:04;;;;;;;6.23;5.63;;;;;;;3.54;84.57;96449.34;5014331;28;20610;-68
2021/12/06 09:21:30;;;;;;;6.60;5.90;;;;;;;3.56;85.54;96450.03;5026688;28;20204;-69
2021/12/06 09:24:00;;;;;;;6.27;5.67;;;;;;;3.59;84.95;96455.06;5038685;28;20199;-71
2021/12/06 09:26:28;;;;;;;6.67;5.63;;;;;;;3.62;84.77;96462.69;5025233;28;20513;-72
2021/12/06 09:28:55;;;;;;;8.17;5.80;;;;;;;3.53;83.87;96468.56;5038343;28;20270;-67
2021/12/06 09:31:22;;;;;;;5.67;5.17;;;;;;;3.56;84.06;96462.28;5037907;28;20224;-68
2021/12/06 09:33:48;;;;;;;9.50;5.50;;;;;;;3.58;86.44;96460.41;5040710;28;20314;-72
2021/12/06 09:36:18;;;;;;;8.43;6.13;;;;;;;3.61;86.15;96474.13;5037166;28;20200;-70
2021/12/06 09:38:45;;;;;;;7.73;6.17;;;;;;;3.69;85.09;96470.94;5036227;28;20314;-67
2021/12/06 09:41:18;;;;;;;5.87;5.27;;;;;;;3.72;84.69;96466.34;5037588;28;20250;-70
2021/12/06 09:43:47;;;;;;;8.00;5.47;;;;;;;3.76;83.80;96467.81;5037606;28;20203;-71
2021/12/06 09:46:14;;;;;;;5.73;5.13;;;;;;;3.88;84.03;96460.91;5037866;28;20544;-72
2021/12/06 09:48:42;;;;;;;5.40;4.90;;;;;;;3.88;84.22;96468.75;5038150;28;20207;-67
2021/12/06 09:51:11;;;;;;;6.57;5.40;;;;;;;3.84;84.95;96464.66;5027399;28;20224;-69
2021/12/06 09:53:40;;;;;;;5.93;5.27;;;;;;;3.96;84.61;96471.69;5018228;28;20532;-67
2021/12/06 09:56:09;;;;;;;5.73;5.23;;;;;;;3.92;83.49;96465.81;5035574;28;20211;-68
2021/12/06 09:58:37;;;;;;;5.47;4.97;;;;;;;3.98;83.39;96469.78;5038241;28;20227;-68
2021/12/06 10:01:10;;;;;;;4.80;4.40;;;;;;;4.03;82.27;96474.69;5036857;28;20219;-71
2021/12/06 10:03:37;;;;;;;5.37;4.87;;;;;;;4.10;82.92;96468.09;5033478;28;20207;-68
2021/12/06 10:06:04;;;;;;;5.27;4.77;;;;;;;4.07;83.03;96469.16;5049340;28;20214;-71
2021/12/06 10:08:32;;;;;;;5.40;4.90;;;;;;;4.15;82.11;96473.81;5039211;28;20203;-68
2021/12/06 10:10:59;;;;;;;5.03;4.63;;;;;;;4.26;81.76;96464.28;5032527;28;20247;-67
2021/12/06 10:13:25;;;;;;;5.50;5.03;;;;;;;4.14;80.37;96464.31;5032563;28;20591;-69
2021/12/06 10:15:52;;;;;;;5.07;4.60;;;;;;;4.20;82.25;96461.25;5038426;28;20216;-71
2021/12/06 10:18:20;;;;;;;5.27;4.77;;;;;;;4.30;82.10;96470.97;5037578;28;20231;-68
2021/12/06 10:20:47;;;;;;;4.90;4.40;;;;;;;4.28;80.32;96472.03;5037385;28;20206;-69
2021/12/06 10:23:15;;;;;;;5.03;4.63;;;;;;;4.39;79.80;96474.72;5037095;28;20204;-69
2021/12/06 10:25:45;;;;;;;4.80;4.33;;;;;;;4.32;78.86;96468.25;5036718;28;20200;-71
2021/12/06 10:28:13;;;;;;;4.93;4.53;;;;;;;4.27;79.45;96465.09;5037016;28;20209;-69
2021/12/06 10:30:42;;;;;;;4.70;4.30;;;;;;;4.13;80.60;96463.47;5037506;28;20214;-72
2021/12/06 10:33:09;;;;;;;4.47;4.07;;;;;;;4.15;80.06;96464.19;5035873;28;20234;-72
2021/12/06 10:35:40;;;;;;;4.93;4.40;;;;;;;4.19;80.72;96467.44;5036036;28;20203;-67
2021/12/06 10:38:06;;;;;;;4.93;4.53;;;;;;;4.24;81.88;96462.72;5033402;28;20211;-67
2021/12/06 10:40:35;;;;;;;4.20;3.90;;;;;;;4.28;83.03;96456.31;5029695;28;20236;-68
2021/12/06 10:43:05;;;;;;;4.70;4.30;;;;;;;4.28;80.81;96462.41;5036479;28;20220;-69
2021/12/06 10:45:33;;;;;;;4.67;4.27;;;;;;;4.32;79.97;96463.03;5026407;28;20277;-66
2021/12/06 10:48:08;;;;;;;4.23;3.93;;;;;;;4.28;80.37;96465.00;5017362;28;20224;-67
2021/12/06 10:50:39;;;;;;;4.30;3.90;;;;;;;4.40;81.38;96460.66;5041057;28;20203;-71
2021/12/06 10:53:06;;;;;;;6.00;4.13;;;;;;;4.43;79.66;96466.50;5028191;28;20204;-67
2021/12/06 10:55:34;;;;;;;4.57;4.17;;;;;;;4.34;79.93;96469.81;5029973;28;20232;-67
2021/12/06 10:58:02;;;;;;;4.30;3.90;;;;;;;4.38;79.18;96466.03;5025388;28;20220;-68
2021/12/06 11:00:36;;;;;;;3.40;3.13;;;;;;;4.32;79.60;96470.88;5031962;28;20250;-71
2021/12/06 11:03:03;;;;;;;5.77;4.30;;;;;;;4.39;79.74;96472.09;5016949;28;20212;-67
2021/12/06 11:05:32;;;;;;;4.30;4.00;;;;;;;4.38;78.75;96468.66;5039164;28;20207;-67
2021/12/06 11:08:10;;;;;;;3.77;3.47;;;;;;;4.37;78.99;96466.97;5036455;28;20242;-69
2021/12/06 11:10:42;;;;;;;4.77;4.40;;;;;;;4.50;80.05;96472.97;5029611;28;20220;-67
2021/12/06 11:13:13;;;;;;;3.90;3.60;;;;;;;4.60;80.11;96464.47;5031796;28;20200;-68
2021/12/06 11:15:54;;;;;;;3.97;3.67;;;;;;;4.67;79.86;96469.16;5018461;28;20211;-70
2021/12/06 11:18:37;;;;;;;4.40;4.00;;;;;;;4.76;77.57;96465.88;5017099;28;20515;-71
2021/12/06 11:21:05;;;;;;;4.10;3.80;;;;;;;4.74;78.30;96465.16;5023980;28;20208;-69
2021/12/06 11:23:33;;;;;;;4.53;4.13;;;;;;;4.78;78.86;96461.34;5043637;28;20211;-72
2021/12/06 11:26:03;;;;;;;4.50;4.10;;;;;;;4.94;79.65;96456.66;5026575;28;20208;-68
2021/12/06 11:28:32;;;;;;;4.50;4.10;;;;;;;5.01;77.56;96457.03;5031054;28;20196;-72
2021/12/06 11:31:00;;;;;;;4.50;4.10;;;;;;;5.06;77.84;96449.69;5035854;28;20199;-68
2021/12/06 11:33:29;;;;;;;4.00;3.70;;;;;;;5.21;76.89;96452.94;5033089;28;20535;-68
2021/12/06 11:35:56;;;;;;;3.90;3.60;;;;;;;5.09;76.02;96449.47;5027008;28;20208;-72
2021/12/06 11:38:22;;;;;;;4.57;4.00;;;;;;;5.05;76.38;96449.78;5035745;28;20232;-68
2021/12/06 11:40:56;;;;;;;3.80;3.50;;;;;;;5.12;76.50;96446.59;5036596;28;20318;-70
2021/12/06 11:43:23;;;;;;;4.17;3.77;;;;;;;5.03;76.36;96448.09;5047400;28;20202;-72